デンバー の空港の天気 - METARとTAF

デンバー国際空港 ( KDEN / DEN ) - アメリカ コロラド州デンバー
飛行場実況気象(Metar)
観測時間08/04 12:53 MDT (08/04 18:53 UTC)
風向・風速北北東 4m/s 瞬間風速8m/s
視程10km以上
天気現象
少しの雲 雲底高度 2440m
全天の4割程度の雲 雲底高度 3350m
全天の4割程度の雲 雲底高度 6710m
気温30.6℃
湿度35%
気圧1009.4hPa
METARKDEN 041853Z 03007G15KT 10SM FEW080 SCT110 SCT220 31/13 A3009 RMK AO2 SLP094 T03060133
過去の天気等 Google飛行場航空写真 Wunderground天気予報

過去48時間のMETAR

飛行場予報(TAF)
発表時間: 8/04 11:27 MDT (8/04 17:27 UTC)
予報対象時間: 4日12時 MDT ~ 5日18時 MDT
風向・風速北 3m/s
視程10km以上
少しの雲 雲底高度 2440m
全天の4割程度の雲 雲底高度 3350m
4日14時 MDT から
風向・風速北 8m/s
視程10km以上
全天の4割程度の雲 雲底高度 2440m
全天の8割程度の雲 雲底高度 3350m
4日16時 MDT ~ 4日18時 MDT に一時的に
風向・風速不定 10m/s 瞬間風速 21m/s
天気現象雷雨
全天の8割程度の積乱雲 雲底高度 2130m
4日18時 MDT から
風向・風速北北東 8m/s 瞬間風速 12m/s
視程10km以上
天気現象周辺で雷
全天の4割程度の積乱雲 雲底高度 2440m
全天の8割程度の雲 雲底高度 4270m
4日19時 MDT から
風向・風速東 8m/s 瞬間風速 11m/s
視程10km以上
少しの雲 雲底高度 2440m
全天の8割程度の雲 雲底高度 4570m
4日21時 MDT から
風向・風速南南東 6m/s
視程10km以上
少しの雲 雲底高度 2440m
全天の4割程度の雲 雲底高度 4570m
5日0時 MDT から
風向・風速南南西 4m/s
視程10km以上
全天の4割程度の雲 雲底高度 4570m
5日12時 MDT から
風向・風速南東 5m/s
視程10km以上
全天の4割程度の雲 雲底高度 2740m
全天の8割程度の雲 雲底高度 4570m
5日15時 MDT から 確率 30% で
天気現象弱い雷雨
全天の8割程度の積乱雲 雲底高度 2740m
KDEN 041727Z 0418/0524 35006KT P6SM FEW080 SCT110
FM042000 35015KT P6SM SCT080 BKN110
TEMPO 0422/0424 VRB20G40KT TSRA BKN070CB
FM050000 03015G24KT P6SM VCTS SCT080CB BKN140
FM050100 08015G22KT P6SM FEW080 BKN150
FM050300 15012KT P6SM FEW080 SCT150
FM050600 21007KT P6SM SCT150
FM051800 13010KT P6SM SCT090 BKN150
PROB30 0521/0524 -TSRA BKN090CB